Αναφορές Αεροδρομίων

 

KSJC - San Jose, California, USA
Distance from station: ΒΑ 14km
Ενημερώθηκε: 16/04/2021 02:53
Few Clouds
Few Clouds
 Ανεμος από ΒΔ
Ανεμος: ΒΔ 26 km/h
Θερμοκρασία: 18°C
Σημείο Δρόσου: 6°C
Υγρασία: 46%
Βαρόμετρο: 1015.6 hPa
Clouds: Few Clouds
Visibility: 16 km
Cloud details: Few Clouds 1067 m
2021/04/15 23:53 KSJC 152353Z 32014KT 10SM FEW035 18/06 A2999 RMK AO2 SLP156 T01830056 10200 20156 58010
KNUQ - Moffett Nas/Mtn, California, USA
Distance from station: Β 14km
Ενημερώθηκε: 14/04/2021 01:40
NOT Current

 
2021/04/13 22:40 KNUQ 132240Z AUTO RMK AO2 PNO PWINO TSNO
 
KPAO - Palo Alto, California, USA
Distance from station: ΒΒΔ 23km
Ενημερώθηκε: 16/04/2021 02:47
Αίθριος
Αίθριος
 Ανεμος από ΒΒΔ
Ανεμος: ΒΒΔ 26 km/h
Θερμοκρασία: 16°C
Σημείο Δρόσου: 8°C
Υγρασία: 59%
Βαρόμετρο: 1016.3 hPa
Clouds: Αίθριος
Visibility: 16 km
2021/04/15 23:47 KPAO 152347Z 34014KT 10SM SKC 16/08 A3001
KRHV - San Jose/Reid, California, USA
Distance from station: ΑΒΑ 19km
Ενημερώθηκε: 16/04/2021 02:47
Αίθριος
Αίθριος
 Ανεμος από ΒΔ
Ανεμος: ΒΔ 19 km/h
Θερμοκρασία: 20°C
Σημείο Δρόσου: 7°C
Υγρασία: 43%
Βαρόμετρο: 1015.6 hPa
Clouds: Αίθριος
Visibility: 16 km
2021/04/15 23:47 KRHV 152347Z 31010KT 10SM SKC 20/07 A2999
 
KOAK - Oakland, California, USA
Distance from station: ΒΒΔ 50km
Ενημερώθηκε: 16/04/2021 02:53
Few Clouds
Few Clouds
 Ανεμος από Δ
Ανεμος: Δ 22 km/h
Θερμοκρασία: 16°C
Σημείο Δρόσου: 6°C
Υγρασία: 52%
Βαρόμετρο: 1016.9 hPa
Clouds: Few Clouds
Visibility: 16 km
Cloud details: Few Clouds 366 m
Few Clouds 7620 m
2021/04/15 23:53 KOAK 152353Z 28012KT 10SM FEW012 FEW250 16/06 A3003 RMK AO2 SLP167 T01560061 10172 20133 58009
KSQL - San Carlos Airpo, California, USA
Distance from station: ΒΔ 34km
Ενημερώθηκε: 16/04/2021 02:47
Αίθριος
Αίθριος
 Ανεμος από ΔΒΔ
Ανεμος: ΔΒΔ 28 km/h
Θερμοκρασία: 17°C
Σημείο Δρόσου: 3°C
Υγρασία: 39%
Βαρόμετρο: 1016.3 hPa
Clouds: Αίθριος
Visibility: 16 km
2021/04/15 23:47 KSQL 152347Z 29015KT 10SM SKC 17/03 A3001
 
KSFO - San Francisco, California, USA
Distance from station: ΒΔ 49km
Ενημερώθηκε: 16/04/2021 02:56
Few Clouds
Few Clouds
 Ανεμος από ΔΒΔ
Ανεμος: ΔΒΔ 26 km/h
Θερμοκρασία: 16°C
Σημείο Δρόσου: 7°C
Υγρασία: 55%
Βαρόμετρο: 1016.6 hPa
Clouds: Few Clouds
Visibility: 16 km
Cloud details: Few Clouds 457 m
Few Clouds 1067 m
2021/04/15 23:56 KSFO 152356Z 30014KT 10SM FEW015 FEW035 16/07 A3002 RMK AO2 SLP165 T01560067 10183 20150 57010
KE16 - San Martin, California, USA
Distance from station: ΑΝΑ 43km
Ενημερώθηκε: 16/04/2021 03:35
Αίθριος
Αίθριος
 Ανεμος από Ν
Ανεμος: Ν 13 km/h
Θερμοκρασία: 20°C
Σημείο Δρόσου: 1°C
Υγρασία: 28%
Βαρόμετρο: 1015.9 hPa
Clouds: Αίθριος
Visibility: 16 km
2021/04/16 00:35 KE16 160035Z AUTO 19007KT 10SM CLR 20/01 A3000 RMK AO2 PWINO PNO
 
KWVI - Watsonville, California, USA
Distance from station: ΝΝΑ 44km
Ενημερώθηκε: 16/04/2021 02:53
Αίθριος
Αίθριος
 Ανεμος από ΔΝΔ
Ανεμος: ΔΝΔ 13 km/h
Θερμοκρασία: 14°C
Σημείο Δρόσου: 8°C
Υγρασία: 67%
Βαρόμετρο: 1017.3 hPa
Clouds: Αίθριος
Visibility: 16 km
2021/04/15 23:53 KWVI 152353Z AUTO 24007KT 10SM CLR 14/08 A3004 RMK AO2 SLP173 T01390083 10178 20139 56008
KHAF - Half Moon Bay, California, USA
Distance from station: ΔΒΔ 50km
Ενημερώθηκε: 16/04/2021 03:35
Haze, Αίθριος
Haze, Αίθριος
 Ανεμος από ΔΒΔ
Ανεμος: ΔΒΔ 13 km/h
Θερμοκρασία: 11°C
Σημείο Δρόσου: 7°C
Υγρασία: 77%
Βαρόμετρο: 1017.9 hPa
Περίληψη: Haze
Clouds: Αίθριος
Visibility: 8 km
2021/04/16 00:35 KHAF 160035Z AUTO 29007KT 5SM HZ CLR 11/07 A3006 RMK AO2
 
KHWD - Hayward, California, USA
Distance from station: Β 44km
Ενημερώθηκε: 16/04/2021 02:54
Αίθριος
Αίθριος
 Ανεμος από ΔΒΔ
Ανεμος: ΔΒΔ 26 km/h
Θερμοκρασία: 16°C
Σημείο Δρόσου: 6°C
Υγρασία: 52%
Βαρόμετρο: 1016.3 hPa
Clouds: Αίθριος
Visibility: 16 km
2021/04/15 23:54 KHWD 152354Z 29014KT 10SM CLR 16/06 A3001 RMK AO2 SLP172 T01610056 10183 20144 58010
KLVK - Livermore, California, USA
Distance from station: ΒΒΑ 51km
Ενημερώθηκε: 16/04/2021 02:53
Αίθριος
Αίθριος
 Ανεμος από Δ
Ανεμος: Δ 20 km/h
Θερμοκρασία: 20°C
Σημείο Δρόσου: 2°C
Υγρασία: 30%
Βαρόμετρο: 1015.2 hPa
Clouds: Αίθριος
Visibility: 16 km
2021/04/15 23:53 KLVK 152353Z 28011KT 10SM CLR 20/02 A2998 RMK AO2 SLP150 T02000017 10222 20167 58008